Terminal Aerodrome Forecast
Issued by NWS

Home | Current Version | Previous Version | Text Only | Print | Product List | Glossary On
Versions: 1 2 3 4 5 6 7 8 9 10 11 12 13 14 15
000
FTPQ31 PGUM 182039 RRA
TAFGRO
TAF
PGRO 182039Z 1821/1918 08010KT P6SM VCSH FEW013
     FM182300 08015KT P6SM FEW013
     FM190900 07009KT P6SM FEW013=

USA.gov is the U.S. government's official web portal to all federal, state and local government web resources and services.